Terminal Aerodrome Forecast
Issued by NWS

Home | Current Version | Previous Version | Text Only | Print | Product List | Glossary On
Versions: 1 2 3 4 5 6 7 8 9 10 11 12 13 14 15 16 17 18 19 20 21 22 23 24 25 26 27 28 29 30 31 32 33 34 35 36
795
FTUS43 KPAH 180520
TAFCGI
TAF
KCGI 180520Z 1806/1906 VRB04KT P6SM SCT180
     FM181100 00000KT 2SM BR MIFG FEW026
     FM181400 04006KT P6SM FEW200
     FM182300 00000KT P6SM SKC=

USA.gov is the U.S. government's official web portal to all federal, state and local government web resources and services.